sensor_id;sensor_type;location;lat;lon;timestamp;P1;durP1;ratioP1;P2;durP2;ratioP2
12088;SDS011;6107;49.078;8.578;2023-02-22T00:00:28;12.27;;;6.13;;
12088;SDS011;6107;49.078;8.578;2023-02-22T00:05:42;11.13;;;4.70;;
12088;SDS011;6107;49.078;8.578;2023-02-22T00:08:10;7.83;;;3.83;;
12088;SDS011;6107;49.078;8.578;2023-02-22T00:10:40;7.63;;;3.63;;
12088;SDS011;6107;49.078;8.578;2023-02-22T00:13:07;7.43;;;4.23;;
12088;SDS011;6107;49.078;8.578;2023-02-22T00:15:33;6.93;;;3.97;;
12088;SDS011;6107;49.078;8.578;2023-02-22T00:17:59;6.47;;;4.07;;
12088;SDS011;6107;49.078;8.578;2023-02-22T00:20:25;9.83;;;5.10;;
12088;SDS011;6107;49.078;8.578;2023-02-22T00:22:51;11.13;;;5.07;;
12088;SDS011;6107;49.078;8.578;2023-02-22T00:25:18;7.83;;;3.93;;
12088;SDS011;6107;49.078;8.578;2023-02-22T00:27:47;9.30;;;3.67;;
12088;SDS011;6107;49.078;8.578;2023-02-22T00:30:16;7.20;;;3.73;;
12088;SDS011;6107;49.078;8.578;2023-02-22T00:32:47;7.83;;;3.80;;
12088;SDS011;6107;49.078;8.578;2023-02-22T00:35:14;5.77;;;3.43;;
12088;SDS011;6107;49.078;8.578;2023-02-22T00:37:41;5.80;;;3.63;;
12088;SDS011;6107;49.078;8.578;2023-02-22T00:40:11;8.53;;;3.87;;
12088;SDS011;6107;49.078;8.578;2023-02-22T00:42:39;7.10;;;3.87;;
12088;SDS011;6107;49.078;8.578;2023-02-22T00:45:04;9.00;;;3.60;;
12088;SDS011;6107;49.078;8.578;2023-02-22T00:47:31;5.07;;;3.53;;
12088;SDS011;6107;49.078;8.578;2023-02-22T00:49:56;9.30;;;3.70;;
12088;SDS011;6107;49.078;8.578;2023-02-22T00:52:22;6.57;;;4.13;;
12088;SDS011;6107;49.078;8.578;2023-02-22T00:54:47;7.57;;;3.87;;
12088;SDS011;6107;49.078;8.578;2023-02-22T00:57:13;7.80;;;3.67;;
12088;SDS011;6107;49.078;8.578;2023-02-22T00:59:39;5.93;;;4.17;;
12088;SDS011;6107;49.078;8.578;2023-02-22T01:02:04;9.40;;;4.50;;
12088;SDS011;6107;49.078;8.578;2023-02-22T01:04:30;8.10;;;4.03;;
12088;SDS011;6107;49.078;8.578;2023-02-22T01:06:55;6.47;;;4.07;;
12088;SDS011;6107;49.078;8.578;2023-02-22T01:09:21;8.00;;;3.90;;
12088;SDS011;6107;49.078;8.578;2023-02-22T01:11:47;5.87;;;3.33;;
12088;SDS011;6107;49.078;8.578;2023-02-22T01:14:19;11.27;;;4.33;;
12088;SDS011;6107;49.078;8.578;2023-02-22T01:16:45;7.53;;;4.20;;
12088;SDS011;6107;49.078;8.578;2023-02-22T01:19:11;6.17;;;4.07;;
12088;SDS011;6107;49.078;8.578;2023-02-22T01:21:38;7.43;;;4.00;;
12088;SDS011;6107;49.078;8.578;2023-02-22T01:24:04;8.40;;;4.20;;
12088;SDS011;6107;49.078;8.578;2023-02-22T01:26:30;6.40;;;4.40;;
12088;SDS011;6107;49.078;8.578;2023-02-22T01:28:55;10.27;;;4.30;;
12088;SDS011;6107;49.078;8.578;2023-02-22T01:31:21;9.00;;;4.07;;
12088;SDS011;6107;49.078;8.578;2023-02-22T01:33:47;8.17;;;4.23;;
12088;SDS011;6107;49.078;8.578;2023-02-22T01:36:14;10.00;;;4.63;;
12088;SDS011;6107;49.078;8.578;2023-02-22T01:38:40;10.03;;;4.37;;
12088;SDS011;6107;49.078;8.578;2023-02-22T01:41:06;8.40;;;4.20;;
12088;SDS011;6107;49.078;8.578;2023-02-22T01:43:32;8.97;;;4.57;;
12088;SDS011;6107;49.078;8.578;2023-02-22T01:51:18;10.87;;;4.93;;
12088;SDS011;6107;49.078;8.578;2023-02-22T01:53:52;9.13;;;5.40;;
12088;SDS011;6107;49.078;8.578;2023-02-22T01:56:20;12.57;;;5.13;;
12088;SDS011;6107;49.078;8.578;2023-02-22T01:58:50;9.80;;;5.00;;
12088;SDS011;6107;49.078;8.578;2023-02-22T02:01:20;8.73;;;4.70;;
12088;SDS011;6107;49.078;8.578;2023-02-22T02:03:47;10.97;;;5.40;;
12088;SDS011;6107;49.078;8.578;2023-02-22T02:06:15;11.57;;;5.03;;
12088;SDS011;6107;49.078;8.578;2023-02-22T02:11:14;11.70;;;5.60;;
12088;SDS011;6107;49.078;8.578;2023-02-22T02:13:41;8.90;;;5.10;;
12088;SDS011;6107;49.078;8.578;2023-02-22T02:16:07;11.50;;;5.47;;
12088;SDS011;6107;49.078;8.578;2023-02-22T02:18:33;10.20;;;5.47;;
12088;SDS011;6107;49.078;8.578;2023-02-22T02:27:07;10.43;;;5.00;;
12088;SDS011;6107;49.078;8.578;2023-02-22T02:32:43;13.80;;;6.57;;
12088;SDS011;6107;49.078;8.578;2023-02-22T02:37:55;10.80;;;6.17;;
12088;SDS011;6107;49.078;8.578;2023-02-22T02:40:44;9.57;;;5.23;;
12088;SDS011;6107;49.078;8.578;2023-02-22T02:43:30;10.33;;;5.47;;
12088;SDS011;6107;49.078;8.578;2023-02-22T02:46:14;9.43;;;5.03;;
12088;SDS011;6107;49.078;8.578;2023-02-22T02:48:52;13.97;;;5.53;;
12088;SDS011;6107;49.078;8.578;2023-02-22T02:51:21;10.80;;;5.73;;
12088;SDS011;6107;49.078;8.578;2023-02-22T02:53:51;15.03;;;6.27;;
12088;SDS011;6107;49.078;8.578;2023-02-22T02:56:17;11.90;;;5.30;;
12088;SDS011;6107;49.078;8.578;2023-02-22T02:58:47;10.87;;;5.60;;
12088;SDS011;6107;49.078;8.578;2023-02-22T03:01:17;9.50;;;5.53;;
12088;SDS011;6107;49.078;8.578;2023-02-22T03:04:12;9.47;;;5.60;;
12088;SDS011;6107;49.078;8.578;2023-02-22T03:07:01;9.47;;;5.27;;
12088;SDS011;6107;49.078;8.578;2023-02-22T03:09:45;9.60;;;5.20;;
12088;SDS011;6107;49.078;8.578;2023-02-22T03:12:27;12.30;;;5.43;;
12088;SDS011;6107;49.078;8.578;2023-02-22T03:18:01;10.87;;;5.50;;
12088;SDS011;6107;49.078;8.578;2023-02-22T03:20:42;10.83;;;5.63;;
12088;SDS011;6107;49.078;8.578;2023-02-22T03:23:14;10.00;;;5.43;;
12088;SDS011;6107;49.078;8.578;2023-02-22T03:26:10;11.57;;;6.10;;
12088;SDS011;6107;49.078;8.578;2023-02-22T03:28:40;11.67;;;6.30;;
12088;SDS011;6107;49.078;8.578;2023-02-22T03:31:09;14.90;;;7.07;;
12088;SDS011;6107;49.078;8.578;2023-02-22T03:33:43;16.53;;;8.13;;
12088;SDS011;6107;49.078;8.578;2023-02-22T03:36:15;11.37;;;6.10;;
12088;SDS011;6107;49.078;8.578;2023-02-22T03:38:49;11.20;;;5.60;;
12088;SDS011;6107;49.078;8.578;2023-02-22T03:41:19;9.20;;;5.67;;
12088;SDS011;6107;49.078;8.578;2023-02-22T03:43:52;11.10;;;5.93;;
12088;SDS011;6107;49.078;8.578;2023-02-22T03:46:23;10.80;;;5.97;;
12088;SDS011;6107;49.078;8.578;2023-02-22T03:48:52;11.73;;;6.43;;
12088;SDS011;6107;49.078;8.578;2023-02-22T03:51:24;11.83;;;5.80;;
12088;SDS011;6107;49.078;8.578;2023-02-22T03:53:50;10.10;;;6.73;;
12088;SDS011;6107;49.078;8.578;2023-02-22T03:56:24;8.87;;;5.93;;
12088;SDS011;6107;49.078;8.578;2023-02-22T03:59:08;12.70;;;6.03;;
12088;SDS011;6107;49.078;8.578;2023-02-22T04:01:35;10.13;;;6.30;;
12088;SDS011;6107;49.078;8.578;2023-02-22T04:04:01;7.60;;;5.30;;
12088;SDS011;6107;49.078;8.578;2023-02-22T04:06:27;11.87;;;5.47;;
12088;SDS011;6107;49.078;8.578;2023-02-22T04:08:53;9.67;;;5.77;;
12088;SDS011;6107;49.078;8.578;2023-02-22T04:11:19;9.03;;;5.40;;
12088;SDS011;6107;49.078;8.578;2023-02-22T04:13:44;11.73;;;5.30;;
12088;SDS011;6107;49.078;8.578;2023-02-22T04:16:10;9.20;;;5.70;;
12088;SDS011;6107;49.078;8.578;2023-02-22T04:18:35;11.13;;;5.93;;
12088;SDS011;6107;49.078;8.578;2023-02-22T04:21:01;10.00;;;5.73;;
12088;SDS011;6107;49.078;8.578;2023-02-22T04:23:27;9.93;;;5.43;;
12088;SDS011;6107;49.078;8.578;2023-02-22T04:25:52;10.17;;;5.50;;
12088;SDS011;6107;49.078;8.578;2023-02-22T04:28:18;10.23;;;5.97;;
12088;SDS011;6107;49.078;8.578;2023-02-22T04:30:44;9.40;;;5.87;;
12088;SDS011;6107;49.078;8.578;2023-02-22T04:33:10;12.67;;;5.90;;
12088;SDS011;6107;49.078;8.578;2023-02-22T04:35:36;11.50;;;6.40;;
12088;SDS011;6107;49.078;8.578;2023-02-22T04:38:01;10.07;;;5.40;;
12088;SDS011;6107;49.078;8.578;2023-02-22T04:40:28;12.10;;;6.80;;
12088;SDS011;6107;49.078;8.578;2023-02-22T04:42:54;8.80;;;5.73;;
12088;SDS011;6107;49.078;8.578;2023-02-22T04:45:19;9.57;;;5.70;;
12088;SDS011;6107;49.078;8.578;2023-02-22T04:47:45;11.23;;;6.40;;
12088;SDS011;6107;49.078;8.578;2023-02-22T04:50:11;11.77;;;5.83;;
12088;SDS011;6107;49.078;8.578;2023-02-22T04:52:37;10.50;;;5.80;;
12088;SDS011;6107;49.078;8.578;2023-02-22T04:55:03;14.67;;;7.70;;
12088;SDS011;6107;49.078;8.578;2023-02-22T04:57:29;11.87;;;6.50;;
12088;SDS011;6107;49.078;8.578;2023-02-22T04:59:55;12.77;;;6.30;;
12088;SDS011;6107;49.078;8.578;2023-02-22T05:02:21;10.70;;;6.40;;
12088;SDS011;6107;49.078;8.578;2023-02-22T05:04:46;9.23;;;6.00;;
12088;SDS011;6107;49.078;8.578;2023-02-22T05:07:12;12.77;;;5.40;;
12088;SDS011;6107;49.078;8.578;2023-02-22T05:09:38;9.97;;;5.80;;
12088;SDS011;6107;49.078;8.578;2023-02-22T05:12:03;12.97;;;5.93;;
12088;SDS011;6107;49.078;8.578;2023-02-22T05:14:29;12.40;;;5.77;;
12088;SDS011;6107;49.078;8.578;2023-02-22T05:16:57;7.63;;;5.03;;
12088;SDS011;6107;49.078;8.578;2023-02-22T05:19:23;12.00;;;6.17;;
12088;SDS011;6107;49.078;8.578;2023-02-22T05:21:49;9.27;;;5.67;;
12088;SDS011;6107;49.078;8.578;2023-02-22T05:24:15;10.30;;;5.90;;
12088;SDS011;6107;49.078;8.578;2023-02-22T05:26:43;10.57;;;6.07;;
12088;SDS011;6107;49.078;8.578;2023-02-22T05:29:10;12.07;;;6.60;;
12088;SDS011;6107;49.078;8.578;2023-02-22T05:31:36;9.37;;;5.53;;
12088;SDS011;6107;49.078;8.578;2023-02-22T05:34:02;11.70;;;6.10;;
12088;SDS011;6107;49.078;8.578;2023-02-22T05:36:27;12.33;;;6.90;;
12088;SDS011;6107;49.078;8.578;2023-02-22T05:38:53;14.13;;;6.70;;
12088;SDS011;6107;49.078;8.578;2023-02-22T05:41:19;12.23;;;7.20;;
12088;SDS011;6107;49.078;8.578;2023-02-22T05:43:45;8.93;;;5.57;;
12088;SDS011;6107;49.078;8.578;2023-02-22T05:46:11;11.60;;;6.70;;
12088;SDS011;6107;49.078;8.578;2023-02-22T05:48:38;13.80;;;6.83;;
12088;SDS011;6107;49.078;8.578;2023-02-22T05:51:03;12.23;;;6.30;;
12088;SDS011;6107;49.078;8.578;2023-02-22T05:53:29;14.77;;;6.10;;
12088;SDS011;6107;49.078;8.578;2023-02-22T05:55:55;12.03;;;6.50;;
12088;SDS011;6107;49.078;8.578;2023-02-22T05:58:20;13.70;;;6.73;;
12088;SDS011;6107;49.078;8.578;2023-02-22T06:00:46;13.80;;;6.80;;
12088;SDS011;6107;49.078;8.578;2023-02-22T06:03:11;11.57;;;6.43;;
12088;SDS011;6107;49.078;8.578;2023-02-22T06:05:37;11.77;;;5.93;;
12088;SDS011;6107;49.078;8.578;2023-02-22T06:08:03;10.03;;;6.20;;
12088;SDS011;6107;49.078;8.578;2023-02-22T06:10:30;9.87;;;6.90;;
12088;SDS011;6107;49.078;8.578;2023-02-22T06:12:57;10.67;;;7.00;;
12088;SDS011;6107;49.078;8.578;2023-02-22T06:15:24;13.20;;;6.37;;
12088;SDS011;6107;49.078;8.578;2023-02-22T06:17:51;12.90;;;6.53;;
12088;SDS011;6107;49.078;8.578;2023-02-22T06:20:18;12.97;;;7.33;;
12088;SDS011;6107;49.078;8.578;2023-02-22T06:22:46;13.97;;;6.90;;
12088;SDS011;6107;49.078;8.578;2023-02-22T06:25:13;13.40;;;7.70;;
12088;SDS011;6107;49.078;8.578;2023-02-22T06:27:39;11.20;;;6.67;;
12088;SDS011;6107;49.078;8.578;2023-02-22T06:30:05;11.23;;;7.17;;
12088;SDS011;6107;49.078;8.578;2023-02-22T06:32:31;9.33;;;6.83;;
12088;SDS011;6107;49.078;8.578;2023-02-22T06:34:57;11.60;;;6.93;;
12088;SDS011;6107;49.078;8.578;2023-02-22T06:37:22;12.37;;;6.77;;
12088;SDS011;6107;49.078;8.578;2023-02-22T06:39:48;13.77;;;6.73;;
12088;SDS011;6107;49.078;8.578;2023-02-22T06:42:13;10.83;;;6.47;;
12088;SDS011;6107;49.078;8.578;2023-02-22T06:44:39;13.13;;;7.27;;
12088;SDS011;6107;49.078;8.578;2023-02-22T06:47:04;15.93;;;7.17;;
12088;SDS011;6107;49.078;8.578;2023-02-22T06:49:30;9.83;;;6.87;;
12088;SDS011;6107;49.078;8.578;2023-02-22T06:51:55;11.87;;;7.23;;
12088;SDS011;6107;49.078;8.578;2023-02-22T06:54:21;10.20;;;6.67;;
12088;SDS011;6107;49.078;8.578;2023-02-22T06:56:47;12.07;;;7.80;;
12088;SDS011;6107;49.078;8.578;2023-02-22T06:59:13;15.33;;;8.63;;
12088;SDS011;6107;49.078;8.578;2023-02-22T07:01:39;13.90;;;7.87;;
12088;SDS011;6107;49.078;8.578;2023-02-22T07:04:05;12.77;;;7.20;;
12088;SDS011;6107;49.078;8.578;2023-02-22T07:06:31;10.37;;;6.40;;
12088;SDS011;6107;49.078;8.578;2023-02-22T07:08:56;18.97;;;7.97;;
12088;SDS011;6107;49.078;8.578;2023-02-22T07:11:22;12.77;;;7.77;;
12088;SDS011;6107;49.078;8.578;2023-02-22T07:13:47;13.27;;;8.37;;
12088;SDS011;6107;49.078;8.578;2023-02-22T07:16:13;10.93;;;7.00;;
12088;SDS011;6107;49.078;8.578;2023-02-22T07:18:39;16.30;;;9.20;;
12088;SDS011;6107;49.078;8.578;2023-02-22T07:21:04;14.40;;;9.03;;
12088;SDS011;6107;49.078;8.578;2023-02-22T07:23:30;11.77;;;7.83;;
12088;SDS011;6107;49.078;8.578;2023-02-22T07:25:58;13.17;;;7.83;;
12088;SDS011;6107;49.078;8.578;2023-02-22T07:28:25;14.23;;;9.33;;
12088;SDS011;6107;49.078;8.578;2023-02-22T07:30:50;17.13;;;9.27;;
12088;SDS011;6107;49.078;8.578;2023-02-22T07:33:16;13.83;;;8.30;;
12088;SDS011;6107;49.078;8.578;2023-02-22T07:35:45;8.93;;;6.43;;
12088;SDS011;6107;49.078;8.578;2023-02-22T07:38:12;11.57;;;7.17;;
12088;SDS011;6107;49.078;8.578;2023-02-22T07:40:40;13.67;;;7.27;;
12088;SDS011;6107;49.078;8.578;2023-02-22T07:43:12;12.57;;;7.97;;
12088;SDS011;6107;49.078;8.578;2023-02-22T07:45:38;15.90;;;8.63;;
12088;SDS011;6107;49.078;8.578;2023-02-22T07:48:04;13.43;;;9.23;;
12088;SDS011;6107;49.078;8.578;2023-02-22T07:50:31;13.37;;;8.13;;
12088;SDS011;6107;49.078;8.578;2023-02-22T07:52:58;22.70;;;12.67;;
12088;SDS011;6107;49.078;8.578;2023-02-22T07:55:25;19.00;;;10.80;;
12088;SDS011;6107;49.078;8.578;2023-02-22T07:57:53;14.80;;;9.40;;
12088;SDS011;6107;49.078;8.578;2023-02-22T08:00:24;18.87;;;9.83;;
12088;SDS011;6107;49.078;8.578;2023-02-22T08:03:01;15.70;;;9.83;;
12088;SDS011;6107;49.078;8.578;2023-02-22T08:05:28;12.83;;;8.70;;
12088;SDS011;6107;49.078;8.578;2023-02-22T08:07:54;16.37;;;9.53;;
12088;SDS011;6107;49.078;8.578;2023-02-22T08:10:21;20.30;;;9.63;;
12088;SDS011;6107;49.078;8.578;2023-02-22T08:12:48;26.33;;;13.17;;
12088;SDS011;6107;49.078;8.578;2023-02-22T08:15:19;24.27;;;12.93;;
12088;SDS011;6107;49.078;8.578;2023-02-22T08:17:47;27.83;;;14.73;;
12088;SDS011;6107;49.078;8.578;2023-02-22T08:20:13;37.53;;;17.93;;
12088;SDS011;6107;49.078;8.578;2023-02-22T08:22:38;27.77;;;15.63;;
12088;SDS011;6107;49.078;8.578;2023-02-22T08:25:07;21.00;;;11.77;;
12088;SDS011;6107;49.078;8.578;2023-02-22T08:27:33;22.70;;;12.97;;
12088;SDS011;6107;49.078;8.578;2023-02-22T08:29:58;28.47;;;15.63;;
12088;SDS011;6107;49.078;8.578;2023-02-22T08:32:24;30.73;;;16.27;;
12088;SDS011;6107;49.078;8.578;2023-02-22T08:34:49;26.80;;;14.20;;
12088;SDS011;6107;49.078;8.578;2023-02-22T08:37:15;25.93;;;15.00;;
12088;SDS011;6107;49.078;8.578;2023-02-22T08:39:42;25.67;;;14.80;;
12088;SDS011;6107;49.078;8.578;2023-02-22T08:42:07;24.27;;;14.40;;
12088;SDS011;6107;49.078;8.578;2023-02-22T08:44:34;25.50;;;14.30;;
12088;SDS011;6107;49.078;8.578;2023-02-22T08:47:00;24.70;;;14.50;;
12088;SDS011;6107;49.078;8.578;2023-02-22T08:49:26;24.83;;;14.27;;
12088;SDS011;6107;49.078;8.578;2023-02-22T08:51:51;25.60;;;13.70;;
12088;SDS011;6107;49.078;8.578;2023-02-22T08:54:17;19.03;;;11.90;;
12088;SDS011;6107;49.078;8.578;2023-02-22T08:56:42;28.30;;;15.13;;
12088;SDS011;6107;49.078;8.578;2023-02-22T08:59:08;27.47;;;15.70;;
12088;SDS011;6107;49.078;8.578;2023-02-22T09:01:33;20.57;;;11.40;;
12088;SDS011;6107;49.078;8.578;2023-02-22T09:03:59;17.97;;;9.23;;
12088;SDS011;6107;49.078;8.578;2023-02-22T09:06:26;21.10;;;10.93;;
12088;SDS011;6107;49.078;8.578;2023-02-22T09:08:52;18.10;;;10.00;;
12088;SDS011;6107;49.078;8.578;2023-02-22T09:11:17;19.43;;;10.50;;
12088;SDS011;6107;49.078;8.578;2023-02-22T09:13:43;17.70;;;10.37;;
12088;SDS011;6107;49.078;8.578;2023-02-22T09:16:09;15.50;;;8.53;;
12088;SDS011;6107;49.078;8.578;2023-02-22T09:18:34;15.37;;;8.70;;
12088;SDS011;6107;49.078;8.578;2023-02-22T09:21:01;15.47;;;7.77;;
12088;SDS011;6107;49.078;8.578;2023-02-22T09:23:26;14.67;;;7.73;;
12088;SDS011;6107;49.078;8.578;2023-02-22T09:25:52;14.23;;;8.13;;
12088;SDS011;6107;49.078;8.578;2023-02-22T09:28:17;13.20;;;8.00;;
12088;SDS011;6107;49.078;8.578;2023-02-22T09:30:43;10.63;;;6.80;;
12088;SDS011;6107;49.078;8.578;2023-02-22T09:33:11;10.53;;;6.33;;
12088;SDS011;6107;49.078;8.578;2023-02-22T09:35:39;11.73;;;5.77;;
12088;SDS011;6107;49.078;8.578;2023-02-22T09:40:44;11.90;;;6.47;;
12088;SDS011;6107;49.078;8.578;2023-02-22T09:48:09;10.73;;;6.40;;
12088;SDS011;6107;49.078;8.578;2023-02-22T09:50:39;9.30;;;5.90;;
12088;SDS011;6107;49.078;8.578;2023-02-22T09:55:33;10.83;;;6.07;;
12088;SDS011;6107;49.078;8.578;2023-02-22T09:58:12;9.33;;;6.27;;
12088;SDS011;6107;49.078;8.578;2023-02-22T10:00:45;9.10;;;5.90;;
12088;SDS011;6107;49.078;8.578;2023-02-22T10:06:14;15.30;;;6.70;;
12088;SDS011;6107;49.078;8.578;2023-02-22T10:08:43;11.87;;;7.00;;
12088;SDS011;6107;49.078;8.578;2023-02-22T10:11:12;9.53;;;5.93;;
12088;SDS011;6107;49.078;8.578;2023-02-22T10:17:12;12.57;;;7.40;;
12088;SDS011;6107;49.078;8.578;2023-02-22T10:19:57;12.00;;;6.23;;
12088;SDS011;6107;49.078;8.578;2023-02-22T10:32:49;8.57;;;5.30;;
12088;SDS011;6107;49.078;8.578;2023-02-22T10:35:23;9.13;;;5.50;;
12088;SDS011;6107;49.078;8.578;2023-02-22T10:38:01;11.40;;;5.93;;
12088;SDS011;6107;49.078;8.578;2023-02-22T10:40:42;11.30;;;5.73;;
12088;SDS011;6107;49.078;8.578;2023-02-22T10:43:11;9.33;;;6.47;;
12088;SDS011;6107;49.078;8.578;2023-02-22T10:45:37;11.90;;;6.50;;
12088;SDS011;6107;49.078;8.578;2023-02-22T10:48:08;12.10;;;6.40;;
12088;SDS011;6107;49.078;8.578;2023-02-22T10:50:36;10.83;;;5.83;;
12088;SDS011;6107;49.078;8.578;2023-02-22T10:53:03;11.67;;;7.37;;
12088;SDS011;6107;49.078;8.578;2023-02-22T10:55:29;11.60;;;6.13;;
12088;SDS011;6107;49.078;8.578;2023-02-22T10:58:00;14.83;;;8.40;;
12088;SDS011;6107;49.078;8.578;2023-02-22T11:00:30;12.47;;;7.03;;
12088;SDS011;6107;49.078;8.578;2023-02-22T11:03:38;12.57;;;7.37;;
12088;SDS011;6107;49.078;8.578;2023-02-22T11:05:46;13.63;;;7.60;;
12088;SDS011;6107;49.078;8.578;2023-02-22T11:08:24;9.97;;;6.27;;
12088;SDS011;6107;49.078;8.578;2023-02-22T11:10:51;10.00;;;6.30;;
12088;SDS011;6107;49.078;8.578;2023-02-22T11:16:16;9.33;;;5.90;;
12088;SDS011;6107;49.078;8.578;2023-02-22T11:18:58;12.40;;;5.90;;
12088;SDS011;6107;49.078;8.578;2023-02-22T11:21:26;11.23;;;6.47;;
12088;SDS011;6107;49.078;8.578;2023-02-22T11:24:02;11.97;;;7.57;;
12088;SDS011;6107;49.078;8.578;2023-02-22T11:26:36;12.75;;;7.85;;
12088;SDS011;6107;49.078;8.578;2023-02-22T11:29:07;9.53;;;6.40;;
12088;SDS011;6107;49.078;8.578;2023-02-22T11:31:41;12.50;;;5.78;;
12088;SDS011;6107;49.078;8.578;2023-02-22T11:34:07;10.00;;;6.65;;
12088;SDS011;6107;49.078;8.578;2023-02-22T11:36:49;12.85;;;7.95;;
12088;SDS011;6107;49.078;8.578;2023-02-22T11:39:33;14.43;;;7.32;;
12088;SDS011;6107;49.078;8.578;2023-02-22T11:45:07;11.75;;;7.20;;
12088;SDS011;6107;49.078;8.578;2023-02-22T11:47:46;9.93;;;6.07;;
12088;SDS011;6107;49.078;8.578;2023-02-22T11:50:26;12.18;;;6.55;;
12088;SDS011;6107;49.078;8.578;2023-02-22T11:53:23;11.63;;;6.30;;
12088;SDS011;6107;49.078;8.578;2023-02-22T11:56:18;13.60;;;7.65;;
12088;SDS011;6107;49.078;8.578;2023-02-22T11:58:52;10.93;;;6.05;;
12088;SDS011;6107;49.078;8.578;2023-02-22T12:01:49;11.30;;;7.35;;
12088;SDS011;6107;49.078;8.578;2023-02-22T12:07:16;12.25;;;8.05;;
12088;SDS011;6107;49.078;8.578;2023-02-22T12:10:15;14.23;;;8.00;;
12088;SDS011;6107;49.078;8.578;2023-02-22T12:13:16;12.93;;;8.15;;
12088;SDS011;6107;49.078;8.578;2023-02-22T12:21:22;11.60;;;6.68;;
12088;SDS011;6107;49.078;8.578;2023-02-22T12:23:52;105.57;;;46.08;;
12088;SDS011;6107;49.078;8.578;2023-02-22T12:26:30;43.88;;;19.38;;
12088;SDS011;6107;49.078;8.578;2023-02-22T12:29:05;53.58;;;23.98;;
12088;SDS011;6107;49.078;8.578;2023-02-22T12:31:55;24.25;;;12.32;;
12088;SDS011;6107;49.078;8.578;2023-02-22T12:34:30;53.00;;;25.85;;
12088;SDS011;6107;49.078;8.578;2023-02-22T12:42:17;22.92;;;11.38;;
12088;SDS011;6107;49.078;8.578;2023-02-22T12:44:50;12.00;;;7.78;;
12088;SDS011;6107;49.078;8.578;2023-02-22T12:47:20;15.98;;;7.88;;
12088;SDS011;6107;49.078;8.578;2023-02-22T12:50:04;13.93;;;8.13;;
12088;SDS011;6107;49.078;8.578;2023-02-22T12:52:48;14.93;;;7.20;;
12088;SDS011;6107;49.078;8.578;2023-02-22T12:55:23;12.73;;;7.57;;
12088;SDS011;6107;49.078;8.578;2023-02-22T12:57:58;12.55;;;7.60;;
12088;SDS011;6107;49.078;8.578;2023-02-22T13:00:40;13.02;;;7.55;;
12088;SDS011;6107;49.078;8.578;2023-02-22T13:08:40;14.32;;;8.50;;
12088;SDS011;6107;49.078;8.578;2023-02-22T13:14:12;20.25;;;8.82;;
12088;SDS011;6107;49.078;8.578;2023-02-22T13:19:47;15.35;;;8.82;;
12088;SDS011;6107;49.078;8.578;2023-02-22T13:22:38;14.63;;;8.23;;
12088;SDS011;6107;49.078;8.578;2023-02-22T13:28:32;15.48;;;9.25;;
12088;SDS011;6107;49.078;8.578;2023-02-22T13:31:49;13.75;;;8.52;;
12088;SDS011;6107;49.078;8.578;2023-02-22T13:34:11;17.10;;;9.13;;
12088;SDS011;6107;49.078;8.578;2023-02-22T13:37:20;16.42;;;8.63;;
12088;SDS011;6107;49.078;8.578;2023-02-22T13:40:05;14.75;;;8.77;;
12088;SDS011;6107;49.078;8.578;2023-02-22T13:45:42;16.38;;;9.65;;
12088;SDS011;6107;49.078;8.578;2023-02-22T13:51:10;18.42;;;10.18;;
12088;SDS011;6107;49.078;8.578;2023-02-22T13:54:06;20.25;;;10.43;;
12088;SDS011;6107;49.078;8.578;2023-02-22T13:56:45;20.38;;;9.52;;
12088;SDS011;6107;49.078;8.578;2023-02-22T14:01:59;19.02;;;9.82;;
12088;SDS011;6107;49.078;8.578;2023-02-22T14:06:58;20.52;;;9.88;;
12088;SDS011;6107;49.078;8.578;2023-02-22T14:15:16;16.92;;;9.77;;
12088;SDS011;6107;49.078;8.578;2023-02-22T14:17:45;18.65;;;10.40;;
12088;SDS011;6107;49.078;8.578;2023-02-22T14:22:44;14.88;;;9.13;;
12088;SDS011;6107;49.078;8.578;2023-02-22T14:28:07;18.23;;;10.15;;
12088;SDS011;6107;49.078;8.578;2023-02-22T14:31:03;17.20;;;9.70;;
12088;SDS011;6107;49.078;8.578;2023-02-22T14:36:16;17.20;;;9.88;;
12088;SDS011;6107;49.078;8.578;2023-02-22T14:38:46;14.23;;;9.70;;
12088;SDS011;6107;49.078;8.578;2023-02-22T14:41:12;18.02;;;9.90;;
12088;SDS011;6107;49.078;8.578;2023-02-22T14:43:40;15.60;;;9.60;;
12088;SDS011;6107;49.078;8.578;2023-02-22T14:46:07;19.85;;;9.43;;
12088;SDS011;6107;49.078;8.578;2023-02-22T14:48:39;17.08;;;9.65;;
12088;SDS011;6107;49.078;8.578;2023-02-22T14:53:58;14.55;;;8.85;;
12088;SDS011;6107;49.078;8.578;2023-02-22T14:56:32;16.98;;;9.55;;
12088;SDS011;6107;49.078;8.578;2023-02-22T14:59:12;17.10;;;9.52;;
12088;SDS011;6107;49.078;8.578;2023-02-22T15:01:39;18.02;;;9.98;;
12088;SDS011;6107;49.078;8.578;2023-02-22T15:04:24;17.08;;;11.20;;
12088;SDS011;6107;49.078;8.578;2023-02-22T15:06:53;14.88;;;10.38;;
12088;SDS011;6107;49.078;8.578;2023-02-22T15:09:24;19.73;;;10.48;;
12088;SDS011;6107;49.078;8.578;2023-02-22T15:14:30;19.75;;;10.68;;
12088;SDS011;6107;49.078;8.578;2023-02-22T15:17:02;20.02;;;11.10;;
12088;SDS011;6107;49.078;8.578;2023-02-22T15:19:36;18.52;;;10.45;;
12088;SDS011;6107;49.078;8.578;2023-02-22T15:22:04;19.45;;;10.93;;
12088;SDS011;6107;49.078;8.578;2023-02-22T15:24:33;20.50;;;11.38;;
12088;SDS011;6107;49.078;8.578;2023-02-22T15:27:04;19.15;;;11.02;;
12088;SDS011;6107;49.078;8.578;2023-02-22T15:29:35;15.70;;;10.63;;
12088;SDS011;6107;49.078;8.578;2023-02-22T15:32:16;15.82;;;10.15;;
12088;SDS011;6107;49.078;8.578;2023-02-22T15:37:59;21.13;;;11.57;;
12088;SDS011;6107;49.078;8.578;2023-02-22T15:40:30;18.70;;;11.13;;
12088;SDS011;6107;49.078;8.578;2023-02-22T15:43:00;16.47;;;10.23;;
12088;SDS011;6107;49.078;8.578;2023-02-22T15:45:33;17.73;;;11.07;;
12088;SDS011;6107;49.078;8.578;2023-02-22T15:47:59;17.60;;;11.07;;
12088;SDS011;6107;49.078;8.578;2023-02-22T15:55:35;17.63;;;10.50;;
12088;SDS011;6107;49.078;8.578;2023-02-22T15:58:10;22.10;;;11.27;;
12088;SDS011;6107;49.078;8.578;2023-02-22T16:00:40;20.67;;;11.77;;
12088;SDS011;6107;49.078;8.578;2023-02-22T16:03:11;20.77;;;11.47;;
12088;SDS011;6107;49.078;8.578;2023-02-22T16:05:45;20.30;;;10.77;;
12088;SDS011;6107;49.078;8.578;2023-02-22T16:08:17;18.13;;;11.17;;
12088;SDS011;6107;49.078;8.578;2023-02-22T16:10:50;18.97;;;10.67;;
12088;SDS011;6107;49.078;8.578;2023-02-22T16:15:57;17.77;;;9.80;;
12088;SDS011;6107;49.078;8.578;2023-02-22T16:18:27;15.50;;;9.70;;
12088;SDS011;6107;49.078;8.578;2023-02-22T16:21:02;14.70;;;9.40;;
12088;SDS011;6107;49.078;8.578;2023-02-22T16:23:29;18.80;;;9.60;;
12088;SDS011;6107;49.078;8.578;2023-02-22T16:26:04;17.70;;;9.73;;
12088;SDS011;6107;49.078;8.578;2023-02-22T16:28:31;18.90;;;9.13;;
12088;SDS011;6107;49.078;8.578;2023-02-22T16:30:59;16.90;;;10.17;;
12088;SDS011;6107;49.078;8.578;2023-02-22T16:33:26;18.23;;;10.50;;
12088;SDS011;6107;49.078;8.578;2023-02-22T16:35:57;21.97;;;9.67;;
12088;SDS011;6107;49.078;8.578;2023-02-22T16:38:29;17.43;;;9.43;;
12088;SDS011;6107;49.078;8.578;2023-02-22T16:40:57;19.07;;;9.57;;
12088;SDS011;6107;49.078;8.578;2023-02-22T16:43:24;16.27;;;9.47;;
12088;SDS011;6107;49.078;8.578;2023-02-22T16:45:53;15.13;;;8.83;;
12088;SDS011;6107;49.078;8.578;2023-02-22T16:48:19;15.07;;;9.10;;
12088;SDS011;6107;49.078;8.578;2023-02-22T16:50:47;15.77;;;9.47;;
12088;SDS011;6107;49.078;8.578;2023-02-22T16:53:14;20.07;;;10.23;;
12088;SDS011;6107;49.078;8.578;2023-02-22T16:55:43;16.47;;;9.40;;
12088;SDS011;6107;49.078;8.578;2023-02-22T16:58:13;17.20;;;9.80;;
12088;SDS011;6107;49.078;8.578;2023-02-22T17:00:40;17.23;;;9.27;;
12088;SDS011;6107;49.078;8.578;2023-02-22T17:03:06;19.80;;;10.23;;
12088;SDS011;6107;49.078;8.578;2023-02-22T17:05:40;19.07;;;9.93;;
12088;SDS011;6107;49.078;8.578;2023-02-22T17:08:07;17.30;;;9.77;;
12088;SDS011;6107;49.078;8.578;2023-02-22T17:10:32;20.27;;;10.90;;
12088;SDS011;6107;49.078;8.578;2023-02-22T17:12:58;18.87;;;10.37;;